Terminal Aerodrome Forecast
Issued by NWS

Current Version | Previous Version | Text Only | Print | Product List | Glossary On
Versions: 1 2 3 4 5 6 7 8 9 10 11 12
000
FTUS44 KTSA 092300
TAFBVO
TAF
KBVO 092328Z 1000/1024 00000KT P6SM FEW050 SCT250
     FM101000 09004KT P6SM SCT050 BKN100 PROB30 1011/1017 5SM -TSRA
      BKN050CB
     FM101700 14008KT P6SM VCTS SCT050CB BKN250
     FM102000 14008KT P6SM BKN250=

USA.gov is the U.S. government's official web portal to all federal, state and local government web resources and services.